Time;durP1;ratioP1;P1;durP2;ratioP2;P2;SDS_P1;SDS_P2;PMS_P1;PMS_P2;Temp;Humidity;BMP_temperature;BMP_pressure;BME280_temperature;BME280_humidity;BME280_pressure;Samples;Min_cycle;Max_cycle;Signal;HPM_P1;HPM_P2
2021/07/10 00:01:34;;;;;;;10.32;9.23;;;;;;;23.56;96.47;96784.38;5088111;28;20090;-58
2021/07/10 00:04:05;;;;;;;14.50;9.98;;;;;;;23.64;93.46;96775.19;5085334;28;20060;-56
2021/07/10 00:06:34;;;;;;;12.35;10.30;;;;;;;23.89;94.08;96775.25;5083951;28;20060;-60
2021/07/10 00:09:02;;;;;;;12.07;10.75;;;;;;;23.48;100.00;96775.75;5087682;28;20072;-57
2021/07/10 00:11:32;;;;;;;12.68;11.45;;;;;;;22.26;100.00;96775.69;5084606;28;20063;-58
2021/07/10 00:14:01;;;;;;;12.23;10.60;;;;;;;23.46;100.00;96767.88;5084581;28;20044;-58
2021/07/10 00:16:29;;;;;;;12.90;10.77;;;;;;;23.35;100.00;96757.81;5091537;28;20083;-59
2021/07/10 00:18:57;;;;;;;12.77;10.68;;;;;;;22.74;100.00;96759.16;5086292;28;20068;-60
2021/07/10 00:21:26;;;;;;;11.60;10.40;;;;;;;22.89;100.00;96764.28;5085041;28;20056;-59
2021/07/10 00:23:54;;;;;;;17.88;10.65;;;;;;;22.64;100.00;96759.66;5086999;28;20071;-57
2021/07/10 00:26:23;;;;;;;13.38;11.13;;;;;;;22.91;100.00;96752.25;5086404;28;20079;-59
2021/07/10 00:28:53;;;;;;;11.80;10.60;;;;;;;23.53;100.00;96747.13;5084399;28;20060;-59
2021/07/10 00:31:21;;;;;;;15.63;11.35;;;;;;;23.65;97.79;96739.16;5089139;28;20084;-58
2021/07/10 00:33:50;;;;;;;14.30;10.50;;;;;;;23.18;99.00;96741.38;5084698;28;20087;-60
2021/07/10 00:36:19;;;;;;;9.93;8.50;;;;;;;22.93;100.00;96742.16;5085786;28;20055;-59
2021/07/10 00:38:47;;;;;;;12.02;9.82;;;;;;;22.72;100.00;96755.91;5085823;28;20064;-59
2021/07/10 00:41:15;;;;;;;11.40;9.73;;;;;;;23.11;100.00;96741.41;5087442;28;20056;-59
2021/07/10 00:43:48;;;;;;;11.43;9.55;;;;;;;23.42;98.94;96745.97;5089774;28;20090;-57
2021/07/10 00:46:19;;;;;;;12.50;9.77;;;;;;;22.42;100.00;96748.34;5081817;28;20558;-58
2021/07/10 00:48:49;;;;;;;35.20;8.20;;;;;;;21.44;100.00;96739.38;5085689;28;20145;-52
2021/07/10 00:51:19;;;;;;;79.03;8.82;;;;;;;21.09;100.00;96739.53;5085080;28;20064;-59
2021/07/10 00:53:49;;;;;;;46.13;9.07;;;;;;;20.30;100.00;96732.03;5085914;28;20055;-59
2021/07/10 00:56:18;;;;;;;63.88;10.38;;;;;;;20.27;100.00;96740.50;5085237;28;20059;-60
2021/07/10 00:58:46;;;;;;;35.97;9.75;;;;;;;20.31;100.00;96734.53;5087121;28;20079;-60
2021/07/10 01:01:15;;;;;;;13.73;9.43;;;;;;;20.95;100.00;96735.19;5084244;28;20078;-57
2021/07/10 01:03:46;;;;;;;13.32;11.23;;;;;;;21.93;100.00;96738.13;5083993;28;20078;-55
2021/07/10 01:06:15;;;;;;;13.07;11.68;;;;;;;21.78;100.00;96728.44;5086308;28;20060;-60
2021/07/10 01:08:45;;;;;;;16.98;11.57;;;;;;;21.56;100.00;96727.00;5051694;28;20072;-59
2021/07/10 01:11:14;;;;;;;16.20;13.52;;;;;;;22.37;100.00;96725.84;5076360;28;20463;-57
2021/07/10 01:13:42;;;;;;;15.73;13.68;;;;;;;21.91;100.00;96724.91;5085436;28;20087;-59
2021/07/10 01:16:11;;;;;;;14.23;12.73;;;;;;;21.90;100.00;96719.75;5085047;28;20060;-56
2021/07/10 01:18:39;;;;;;;13.60;12.20;;;;;;;22.45;100.00;96714.88;5085662;28;20525;-57
2021/07/10 01:21:09;;;;;;;14.02;12.50;;;;;;;22.43;100.00;96712.38;5084197;28;20075;-59
2021/07/10 01:23:37;;;;;;;13.27;11.87;;;;;;;21.55;100.00;96710.09;5086260;28;20064;-55
2021/07/10 01:26:06;;;;;;;12.43;11.13;;;;;;;21.93;100.00;96714.78;5086010;28;20525;-57
2021/07/10 01:28:34;;;;;;;12.10;10.88;;;;;;;21.43;100.00;96701.00;5089498;28;20457;-59
2021/07/10 01:31:03;;;;;;;11.25;10.13;;;;;;;21.46;100.00;96695.22;5084846;28;20060;-57
2021/07/10 01:33:31;;;;;;;12.52;11.30;;;;;;;21.50;100.00;96707.19;5082907;28;20580;-59
2021/07/10 01:36:00;;;;;;;11.57;10.38;;;;;;;21.80;100.00;96704.06;5085610;28;20063;-58
2021/07/10 01:38:30;;;;;;;15.25;11.32;;;;;;;21.03;100.00;96703.66;5083342;28;20067;-59
2021/07/10 01:40:58;;;;;;;14.98;12.32;;;;;;;22.15;100.00;96698.44;5084367;28;20085;-56
2021/07/10 01:43:27;;;;;;;37.85;12.77;;;;;;;21.86;100.00;96700.56;5086013;28;20482;-60
2021/07/10 01:45:55;;;;;;;15.45;12.80;;;;;;;21.89;100.00;96699.31;5086651;28;20639;-58
2021/07/10 01:48:24;;;;;;;16.88;12.85;;;;;;;21.60;100.00;96693.34;5085453;28;20060;-58
2021/07/10 01:50:56;;;;;;;16.08;12.68;;;;;;;21.64;100.00;96697.25;5066408;28;20089;-58
2021/07/10 01:53:28;;;;;;;16.25;13.35;;;;;;;22.34;100.00;96688.66;5084028;28;20043;-59
2021/07/10 01:55:57;;;;;;;28.10;13.65;;;;;;;21.81;100.00;96684.22;5086996;28;20091;-57
2021/07/10 01:58:26;;;;;;;35.83;12.38;;;;;;;21.39;100.00;96680.16;5085456;28;20067;-57
2021/07/10 02:00:54;;;;;;;29.45;11.05;;;;;;;20.83;100.00;96678.66;5084022;28;20509;-59
2021/07/10 02:03:23;;;;;;;18.00;9.80;;;;;;;20.81;100.00;96686.06;5085186;28;20052;-58
2021/07/10 02:05:51;;;;;;;20.52;10.35;;;;;;;20.87;100.00;96679.91;5086313;28;20443;-59
2021/07/10 02:08:19;;;;;;;10.65;9.55;;;;;;;21.79;100.00;96687.13;5082498;28;20178;-55
2021/07/10 02:10:48;;;;;;;18.52;10.82;;;;;;;22.08;100.00;96681.47;5082435;28;20075;-60
2021/07/10 02:13:18;;;;;;;16.73;11.15;;;;;;;21.56;100.00;96674.16;5086196;28;20465;-58
2021/07/10 02:15:46;;;;;;;13.25;10.93;;;;;;;21.61;100.00;96670.88;5081671;28;20043;-59
2021/07/10 02:18:15;;;;;;;14.90;11.20;;;;;;;21.02;100.00;96667.13;5082872;28;20074;-59
2021/07/10 02:20:43;;;;;;;18.85;11.55;;;;;;;21.10;100.00;96666.13;5084566;28;20518;-57
2021/07/10 02:23:11;;;;;;;63.75;12.77;;;;;;;21.25;100.00;96664.03;5085438;28;20060;-54
2021/07/10 02:25:40;;;;;;;35.53;12.45;;;;;;;21.16;100.00;96654.53;5084144;28;20090;-57
2021/07/10 02:28:09;;;;;;;20.20;10.82;;;;;;;21.11;100.00;96654.34;5081766;28;20514;-59
2021/07/10 02:30:39;;;;;;;27.15;10.50;;;;;;;21.74;100.00;96653.91;5084890;28;20090;-59
2021/07/10 02:33:07;;;;;;;35.67;10.25;;;;;;;21.82;100.00;96659.06;5085895;28;20063;-57
2021/07/10 02:35:36;;;;;;;98.30;12.15;;;;;;;21.54;100.00;96657.47;5084200;28;20072;-59
2021/07/10 02:38:05;;;;;;;52.05;11.70;;;;;;;21.32;100.00;96653.31;5083683;28;20082;-57
2021/07/10 02:40:34;;;;;;;11.52;10.02;;;;;;;21.22;100.00;96651.03;5086744;28;20072;-60
2021/07/10 02:43:03;;;;;;;13.88;9.90;;;;;;;20.31;100.00;96651.50;5081270;28;20059;-57
2021/07/10 02:45:32;;;;;;;14.07;9.85;;;;;;;21.50;100.00;96644.66;5080528;28;20056;-59
2021/07/10 02:48:02;;;;;;;12.48;9.98;;;;;;;19.81;100.00;96650.03;5083722;28;20064;-56
2021/07/10 02:50:30;;;;;;;10.70;9.60;;;;;;;;;;5086246;28;20063;-59
2021/07/10 02:53:01;;;;;;;11.55;8.77;;;;;;;21.30;100.00;96636.59;5081711;28;20505;-57
2021/07/10 02:55:30;;;;;;;9.05;8.13;;;;;;;20.79;100.00;96639.91;5086660;28;20079;-60
2021/07/10 02:57:58;;;;;;;9.60;7.72;;;;;;;20.99;100.00;96630.03;5081940;28;20060;-58
2021/07/10 03:00:27;;;;;;;32.83;8.45;;;;;;;;;;5081291;28;20075;-57
2021/07/10 03:02:56;;;;;;;28.63;8.27;;;;;;;20.78;100.00;96620.28;5083180;28;20064;-57
2021/07/10 03:05:27;;;;;;;15.00;8.60;;;;;;;21.17;100.00;96617.84;5084722;28;20075;-59
2021/07/10 03:07:56;;;;;;;33.15;9.80;;;;;;;21.36;100.00;96617.00;5086063;28;20457;-59
2021/07/10 03:10:27;;;;;;;17.20;9.55;;;;;;;20.35;100.00;96622.47;5081724;28;20492;-60
2021/07/10 03:12:55;;;;;;;;;;;;;;;20.29;100.00;96626.75;5082314;28;20063;-59
2021/07/10 03:15:24;;;;;;;52.10;10.27;;;;;;;20.67;100.00;96628.13;5085142;28;20361;-60
2021/07/10 03:17:53;;;;;;;56.58;10.63;;;;;;;19.71;100.00;96636.19;5083373;28;20555;-57
2021/07/10 03:20:22;;;;;;;30.27;9.80;;;;;;;20.78;100.00;96631.00;5082326;28;20072;-59
2021/07/10 03:22:53;;;;;;;31.13;11.20;;;;;;;21.00;100.00;96633.53;5086038;28;20076;-57
2021/07/10 03:25:21;;;;;;;68.18;12.18;;;;;;;21.00;100.00;96631.66;5089085;28;20067;-58
2021/07/10 03:27:50;;;;;;;58.42;12.27;;;;;;;21.20;100.00;96633.53;5085871;28;20072;-59
2021/07/10 03:30:21;;;;;;;46.10;11.98;;;;;;;20.23;100.00;96643.63;5083510;28;20060;-57
2021/07/10 03:32:50;;;;;;;42.03;10.93;;;;;;;20.97;100.00;96639.28;5089227;28;20466;-59
2021/07/10 03:35:19;;;;;;;29.33;9.38;;;;;;;20.95;100.00;96644.03;5083180;28;20064;-50
2021/07/10 03:37:48;;;;;;;42.75;9.95;;;;;;;20.40;100.00;96644.09;5085724;28;20080;-52
2021/07/10 03:40:19;;;;;;;23.60;9.18;;;;;;;20.48;100.00;96645.78;5091080;28;20468;-54
2021/07/10 03:42:48;;;;;;;14.23;8.25;;;;;;;21.21;100.00;96646.72;5087276;28;20529;-50
2021/07/10 03:45:17;;;;;;;8.32;7.43;;;;;;;20.78;100.00;96638.22;5087424;28;20063;-50
2021/07/10 03:47:48;;;;;;;8.15;7.35;;;;;;;20.93;100.00;96630.84;5087199;28;20060;-51
2021/07/10 03:50:17;;;;;;;18.80;8.45;;;;;;;20.65;100.00;96627.50;5086696;28;20067;-48
2021/07/10 03:52:45;;;;;;;26.65;7.57;;;;;;;21.62;97.73;96624.19;5090129;28;20081;-54
2021/07/10 03:55:15;;;;;;;16.05;6.30;;;;;;;21.64;92.98;96634.72;5083745;28;20485;-53
2021/07/10 03:57:45;;;;;;;18.58;7.95;;;;;;;20.62;100.00;96623.38;5087413;28;20525;-53
2021/07/10 04:00:17;;;;;;;26.10;8.45;;;;;;;20.69;100.00;96626.06;5083311;28;20076;-57
2021/07/10 04:02:46;;;;;;;15.70;7.72;;;;;;;21.70;97.21;96620.47;5086081;28;20075;-51
2021/07/10 04:05:14;;;;;;;28.23;7.70;;;;;;;22.27;90.01;96619.66;5084361;28;20071;-53
2021/07/10 04:07:43;;;;;;;23.67;8.30;;;;;;;22.57;86.53;96618.22;5090450;28;20084;-49
2021/07/10 04:10:12;;;;;;;17.83;8.57;;;;;;;21.24;100.00;96624.84;5087067;28;20064;-53
2021/07/10 04:12:41;;;;;;;25.08;8.25;;;;;;;20.99;100.00;96621.97;5085544;28;20068;-58
2021/07/10 04:15:12;;;;;;;16.38;7.13;;;;;;;19.86;100.00;96619.00;5087594;28;20059;-52
2021/07/10 04:17:41;;;;;;;21.25;7.40;;;;;;;20.89;100.00;96618.88;5089225;28;20079;-51
2021/07/10 04:20:11;;;;;;;12.60;7.53;;;;;;;23.20;86.19;96612.84;5086657;28;20059;-49
2021/07/10 04:22:40;;;;;;;8.20;6.63;;;;;;;23.88;71.69;96617.34;5086887;28;20076;-54
2021/07/10 04:25:11;;;;;;;7.60;5.70;;;;;;;23.78;69.86;96617.88;5087877;28;20458;-53
2021/07/10 04:27:41;;;;;;;9.45;6.68;;;;;;;23.90;68.18;96615.25;5085285;28;20064;-54
2021/07/10 04:30:12;;;;;;;8.57;6.72;;;;;;;24.46;64.89;96613.34;5083068;28;20079;-53
2021/07/10 04:32:40;;;;;;;15.68;6.70;;;;;;;25.00;61.41;96620.41;5086737;28;20522;-52
2021/07/10 04:35:10;;;;;;;18.63;6.93;;;;;;;25.16;59.77;96624.34;5086694;28;20181;-53
2021/07/10 04:37:39;;;;;;;13.10;7.27;;;;;;;25.24;60.00;96629.38;5085748;28;20082;-50
2021/07/10 04:40:08;;;;;;;12.13;6.40;;;;;;;26.09;55.91;96630.78;5084364;28;20059;-53
2021/07/10 04:42:37;;;;;;;14.40;6.85;;;;;;;26.15;54.76;96628.97;5081778;28;20064;-52
2021/07/10 04:45:06;;;;;;;16.85;6.43;;;;;;;26.50;53.66;96620.81;5080037;28;20056;-50
2021/07/10 04:47:35;;;;;;;16.23;5.65;;;;;;;25.98;55.12;96632.44;5085223;28;20597;-57
2021/07/10 04:50:05;;;;;;;11.00;5.95;;;;;;;24.93;62.78;96624.28;5084355;28;20088;-52
2021/07/10 04:52:33;;;;;;;12.23;5.68;;;;;;;24.90;63.07;96620.16;5087155;28;20090;-54
2021/07/10 04:55:02;;;;;;;18.75;5.90;;;;;;;25.29;61.41;96623.28;5083805;28;20067;-54
2021/07/10 04:57:30;;;;;;;8.82;5.93;;;;;;;25.65;61.59;96624.13;5086443;28;20462;-47
2021/07/10 04:59:59;;;;;;;19.77;6.18;;;;;;;25.48;62.01;96615.91;5084408;28;20561;-54
2021/07/10 05:02:27;;;;;;;13.55;6.05;;;;;;;26.65;57.12;96620.25;5081363;28;20529;-53
2021/07/10 05:04:57;;;;;;;20.98;5.40;;;;;;;25.49;64.19;96621.06;5084473;28;21230;-52
2021/07/10 05:07:25;;;;;;;9.10;5.70;;;;;;;26.94;57.80;96623.72;5088163;28;20446;-53
2021/07/10 05:09:54;;;;;;;6.07;5.47;;;;;;;28.14;50.18;96622.31;5078846;28;20060;-47
2021/07/10 05:12:22;;;;;;;5.50;5.10;;;;;;;25.65;60.25;96619.53;5083673;28;20466;-51
2021/07/10 05:14:51;;;;;;;6.00;5.40;;;;;;;25.23;69.74;96614.25;5087155;28;20067;-48
2021/07/10 05:17:22;;;;;;;7.25;5.88;;;;;;;26.51;61.99;96603.50;5084793;28;20064;-48
2021/07/10 05:19:50;;;;;;;6.68;6.00;;;;;;;27.68;56.30;96605.44;5085481;28;20083;-54
2021/07/10 05:22:39;;;;;;;6.97;6.07;;;;;;;28.98;49.70;96603.97;5087498;28;20043;-50
2021/07/10 05:25:09;;;;;;;6.72;6.07;;;;;;;29.27;47.77;96604.50;5082906;28;20473;-49
2021/07/10 05:27:37;;;;;;;6.88;6.18;;;;;;;30.83;44.34;96604.72;5084996;28;20075;-52
2021/07/10 05:30:08;;;;;;;6.25;5.65;;;;;;;30.50;45.70;96611.44;5079798;28;20063;-49
2021/07/10 05:32:36;;;;;;;8.68;7.82;;;;;;;27.52;51.44;96619.00;5086005;28;20070;-51
2021/07/10 05:35:06;;;;;;;10.50;8.70;;;;;;;29.34;49.49;96615.97;5085798;28;20064;-53
2021/07/10 05:37:35;;;;;;;9.32;8.38;;;;;;;28.79;53.20;96619.81;5066871;28;20078;-52
2021/07/10 05:40:06;;;;;;;7.82;7.03;;;;;;;28.22;56.16;96628.38;5086943;28;20070;-48
2021/07/10 05:42:34;;;;;;;9.32;8.40;;;;;;;26.90;65.85;96628.00;5083185;28;20063;-49
2021/07/10 05:45:04;;;;;;;13.38;11.80;;;;;;;27.01;65.64;96637.09;5084803;28;20459;-48
2021/07/10 05:47:32;;;;;;;13.05;11.35;;;;;;;25.33;85.03;96641.50;5084809;28;20068;-46
2021/07/10 05:50:01;;;;;;;13.15;11.43;;;;;;;24.38;100.00;96625.22;5082332;28;20084;-48
2021/07/10 05:52:29;;;;;;;13.65;11.93;;;;;;;25.03;96.32;96638.84;5089274;28;20080;-50
2021/07/10 05:54:57;;;;;;;15.38;12.25;;;;;;;24.93;93.13;96629.66;5085216;28;20425;-47
2021/07/10 05:57:27;;;;;;;16.70;12.80;;;;;;;25.06;89.53;96635.69;5083140;28;20072;-47
2021/07/10 05:59:56;;;;;;;14.05;12.13;;;;;;;26.68;77.08;96636.81;5085623;28;20071;-50
2021/07/10 06:02:24;;;;;;;14.98;12.63;;;;;;;26.41;78.60;96643.84;5085593;28;20134;-49
2021/07/10 06:04:53;;;;;;;17.90;14.00;;;;;;;25.36;87.36;96639.38;5083141;28;20068;-48
2021/07/10 06:07:21;;;;;;;17.50;13.90;;;;;;;25.45;86.41;96644.19;5087438;28;20454;-47
2021/07/10 06:09:50;;;;;;;18.30;14.43;;;;;;;26.34;81.39;96637.75;5085650;28;20070;-51
2021/07/10 06:12:18;;;;;;;18.73;14.40;;;;;;;26.44;83.98;96630.66;5082225;28;20170;-49
2021/07/10 06:14:48;;;;;;;18.63;15.10;;;;;;;26.43;83.62;96645.25;5084616;28;20063;-47
2021/07/10 06:17:16;;;;;;;21.50;15.75;;;;;;;26.16;87.20;96642.28;5084699;28;20067;-50
2021/07/10 06:19:44;;;;;;;19.67;15.45;;;;;;;25.06;98.95;96656.44;5084284;28;20092;-47
2021/07/10 06:22:13;;;;;;;19.33;15.77;;;;;;;24.62;100.00;96650.44;5083065;28;20540;-50
2021/07/10 06:24:41;;;;;;;20.73;15.70;;;;;;;25.22;98.32;96646.88;5084254;28;20469;-48
2021/07/10 06:27:10;;;;;;;19.50;14.68;;;;;;;25.54;96.83;96641.97;5085570;28;20067;-50
2021/07/10 06:29:40;;;;;;;22.25;16.35;;;;;;;26.34;87.79;96640.47;5082902;28;20139;-51
2021/07/10 06:32:11;;;;;;;19.85;15.80;;;;;;;25.97;95.05;96635.38;5080458;28;20142;-50
2021/07/10 06:34:40;;;;;;;18.30;15.20;;;;;;;25.66;96.19;96640.06;5087916;28;20102;-48
2021/07/10 06:37:08;;;;;;;17.17;14.13;;;;;;;25.55;98.30;96644.44;5085304;28;20067;-47
2021/07/10 06:39:36;;;;;;;18.13;15.05;;;;;;;25.19;100.00;96636.53;5080400;28;20068;-47
2021/07/10 06:42:05;;;;;;;17.90;15.38;;;;;;;26.84;87.22;96632.53;5084660;28;20059;-51
2021/07/10 06:44:33;;;;;;;16.77;14.60;;;;;;;27.16;84.82;96648.25;5085767;28;20451;-47
2021/07/10 06:47:02;;;;;;;17.27;15.40;;;;;;;25.52;97.07;96644.91;5082346;28;20068;-47
2021/07/10 06:49:32;;;;;;;19.85;15.88;;;;;;;26.16;91.43;96650.38;5087830;28;20525;-49
2021/07/10 06:52:00;;;;;;;18.73;15.52;;;;;;;25.94;93.34;96652.06;5084136;28;21469;-48
2021/07/10 06:54:29;;;;;;;18.50;16.15;;;;;;;26.96;86.03;96643.25;5083864;28;20064;-48
2021/07/10 06:56:57;;;;;;;16.73;14.02;;;;;;;27.33;83.42;96642.84;5081705;28;20088;-47
2021/07/10 06:59:25;;;;;;;17.98;16.08;;;;;;;25.99;95.59;96657.59;5085510;28;20060;-47
2021/07/10 07:01:54;;;;;;;16.83;15.05;;;;;;;27.36;81.13;96650.47;5089190;28;20526;-55
2021/07/10 07:04:22;;;;;;;19.02;16.00;;;;;;;27.06;80.76;96639.91;5088958;28;20087;-49
2021/07/10 07:06:52;;;;;;;18.23;16.33;;;;;;;26.75;82.15;96642.09;5086951;28;20079;-47
2021/07/10 07:09:20;;;;;;;18.13;15.57;;;;;;;27.29;81.15;96645.22;5090226;28;20071;-49
2021/07/10 07:11:51;;;;;;;18.02;14.75;;;;;;;26.99;84.78;96643.59;5086955;28;20533;-53
2021/07/10 07:14:20;;;;;;;17.38;15.18;;;;;;;27.43;76.79;96637.59;5085328;28;20067;-48
2021/07/10 07:16:48;;;;;;;17.05;14.95;;;;;;;27.57;79.68;96640.75;5088697;28;20071;-56
2021/07/10 07:19:17;;;;;;;18.85;15.77;;;;;;;28.65;71.72;96637.56;5090140;28;20236;-49
2021/07/10 07:21:45;;;;;;;21.33;16.08;;;;;;;27.39;78.93;96633.69;5087001;28;20486;-50
2021/07/10 07:24:15;;;;;;;17.10;14.73;;;;;;;27.62;74.94;96630.00;5082334;28;20064;-53
2021/07/10 07:26:43;;;;;;;17.83;15.43;;;;;;;27.45;80.08;96630.00;5089785;28;20075;-48
2021/07/10 07:29:12;;;;;;;16.77;14.85;;;;;;;28.24;72.53;96635.19;5084300;28;20051;-49
2021/07/10 07:31:40;;;;;;;16.63;14.85;;;;;;;28.88;64.06;96629.13;5086880;28;20084;-51
2021/07/10 07:34:08;;;;;;;16.42;14.73;;;;;;;28.72;71.06;96632.75;5089204;28;20071;-51
2021/07/10 07:36:37;;;;;;;16.58;14.77;;;;;;;27.85;75.02;96618.97;5087278;28;20067;-50
2021/07/10 07:39:07;;;;;;;16.35;14.55;;;;;;;29.12;66.88;96620.69;5084864;28;20068;-51
2021/07/10 07:41:37;;;;;;;15.25;12.68;;;;;;;28.34;73.11;96616.31;5086225;28;20070;-49
2021/07/10 07:44:07;;;;;;;14.82;12.68;;;;;;;29.81;60.73;96620.66;5088286;28;20064;-50
2021/07/10 07:46:35;;;;;;;15.90;13.43;;;;;;;28.73;63.21;96616.22;5088417;28;20078;-49
2021/07/10 07:49:04;;;;;;;16.55;13.43;;;;;;;28.22;68.20;96612.94;5084838;28;20071;-47
2021/07/10 07:51:32;;;;;;;13.38;11.57;;;;;;;29.31;64.87;96602.91;5084484;28;20063;-51
2021/07/10 07:54:01;;;;;;;14.00;11.55;;;;;;;28.52;68.26;96593.47;5088011;28;20059;-51
2021/07/10 07:56:30;;;;;;;12.65;11.38;;;;;;;28.62;68.60;96587.34;5085023;28;20564;-49
2021/07/10 07:58:59;;;;;;;13.40;12.05;;;;;;;29.10;67.36;96586.44;5085715;28;20068;-47
2021/07/10 08:01:28;;;;;;;13.50;11.65;;;;;;;28.60;69.54;96584.91;5089586;28;20083;-50
2021/07/10 08:03:56;;;;;;;12.40;11.02;;;;;;;28.42;69.62;96587.94;5086125;28;20067;-49
2021/07/10 08:06:25;;;;;;;12.05;10.75;;;;;;;27.80;71.74;96588.25;5084766;28;20068;-47
2021/07/10 08:08:53;;;;;;;13.20;11.50;;;;;;;27.89;71.31;96590.28;5088308;28;20074;-48
2021/07/10 08:11:21;;;;;;;12.77;11.35;;;;;;;28.86;66.32;96594.09;5087039;28;20067;-48
2021/07/10 08:13:50;;;;;;;12.95;11.52;;;;;;;28.68;65.78;96599.06;5084040;28;20083;-51
2021/07/10 08:16:20;;;;;;;13.18;11.77;;;;;;;28.34;69.77;96594.63;5088603;28;20075;-47
2021/07/10 08:18:49;;;;;;;14.23;12.02;;;;;;;28.86;68.54;96598.69;5088733;28;20040;-48
2021/07/10 08:21:18;;;;;;;16.33;13.75;;;;;;;27.90;74.03;96599.22;5086334;28;20129;-47
2021/07/10 08:23:47;;;;;;;13.70;11.98;;;;;;;27.68;72.33;96594.59;5086072;28;20055;-52
2021/07/10 08:26:16;;;;;;;13.32;12.02;;;;;;;28.59;66.70;96593.28;5088453;28;20063;-49
2021/07/10 08:28:44;;;;;;;13.65;12.23;;;;;;;28.42;71.33;96590.66;5088603;28;20423;-48
2021/07/10 08:31:13;;;;;;;13.93;12.52;;;;;;;28.11;68.34;96590.31;5085917;28;20067;-48
2021/07/10 08:33:43;;;;;;;12.50;11.20;;;;;;;27.96;68.18;96587.38;5086349;28;20102;-55
2021/07/10 08:36:11;;;;;;;11.63;10.02;;;;;;;28.60;63.99;96582.19;5087989;28;20059;-47
2021/07/10 08:38:39;;;;;;;13.57;11.32;;;;;;;27.14;72.34;96579.97;5085729;28;20067;-48
2021/07/10 08:41:08;;;;;;;13.27;10.50;;;;;;;28.39;73.00;96569.50;5084953;28;20083;-52
2021/07/10 08:43:37;;;;;;;11.85;10.20;;;;;;;29.64;61.08;96566.47;5090093;28;20072;-50
2021/07/10 08:46:07;;;;;;;11.73;10.52;;;;;;;28.15;65.96;96571.63;5085738;28;20063;-47
2021/07/10 08:48:35;;;;;;;11.52;10.27;;;;;;;29.00;63.70;96564.63;5081841;28;20059;-46
2021/07/10 08:51:07;;;;;;;11.80;10.65;;;;;;;27.64;70.14;96560.94;5087119;28;20062;-49
2021/07/10 08:53:36;;;;;;;10.85;9.77;;;;;;;29.02;66.44;96569.81;5087015;28;20082;-53
2021/07/10 08:56:06;;;;;;;12.38;10.48;;;;;;;29.58;61.37;96562.03;5085243;28;20076;-51
2021/07/10 08:58:35;;;;;;;11.75;10.55;;;;;;;29.60;63.49;96561.81;5087192;28;20074;-48
2021/07/10 09:01:08;;;;;;;12.77;11.05;;;;;;;29.19;65.56;96556.09;5087102;28;20068;-50
2021/07/10 09:03:37;;;;;;;11.50;10.30;;;;;;;29.88;61.79;96564.13;5086244;28;20063;-47
2021/07/10 09:06:07;;;;;;;12.65;11.45;;;;;;;29.24;64.19;96554.22;5083271;28;20068;-53
2021/07/10 09:08:36;;;;;;;10.65;9.32;;;;;;;29.63;61.42;96551.25;5063936;28;20113;-53
2021/07/10 09:11:06;;;;;;;12.18;10.88;;;;;;;28.35;71.10;96562.88;5086573;28;20090;-47
2021/07/10 09:13:38;;;;;;;12.32;10.27;;;;;;;28.89;65.87;96549.31;5088430;28;20068;-47
2021/07/10 09:16:09;;;;;;;11.18;9.75;;;;;;;30.43;58.67;96553.75;5081210;28;20067;-47
2021/07/10 09:18:40;;;;;;;13.00;10.13;;;;;;;29.70;62.90;96559.97;5086141;28;20477;-50
2021/07/10 09:21:11;;;;;;;10.95;9.65;;;;;;;29.86;62.76;96558.13;5087492;28;20075;-52
2021/07/10 09:23:41;;;;;;;11.15;10.02;;;;;;;29.88;60.17;96549.72;5083351;28;20063;-48
2021/07/10 09:26:23;;;;;;;10.32;9.25;;;;;;;29.16;66.74;96546.56;5083118;28;20068;-52
2021/07/10 09:29:01;;;;;;;9.85;8.73;;;;;;;28.67;68.36;96535.03;5085706;28;20075;-48
2021/07/10 09:31:32;;;;;;;11.05;10.00;;;;;;;29.39;68.25;96531.78;5087373;28;20079;-49
2021/07/10 09:34:03;;;;;;;12.05;10.75;;;;;;;29.78;60.55;96529.56;5082745;28;20075;-49
2021/07/10 09:36:33;;;;;;;11.25;9.93;;;;;;;28.93;65.91;96531.41;5083883;28;20072;-50
2021/07/10 09:39:02;;;;;;;10.65;9.07;;;;;;;30.10;61.38;96517.69;5086452;28;20071;-50
2021/07/10 09:41:32;;;;;;;10.73;9.50;;;;;;;29.01;64.58;96514.69;5082045;28;20063;-47
2021/07/10 09:44:06;;;;;;;9.48;8.48;;;;;;;30.06;58.74;96513.06;5083037;28;20092;-48
2021/07/10 09:46:35;;;;;;;9.93;8.93;;;;;;;29.70;62.57;96511.06;5087150;28;20182;-51
2021/07/10 09:49:23;;;;;;;10.77;9.32;;;;;;;29.33;64.29;96509.19;5086941;28;20067;-47
2021/07/10 09:51:59;;;;;;;10.40;9.15;;;;;;;29.17;63.59;96502.03;5084170;28;20076;-53
2021/07/10 09:54:29;;;;;;;9.07;8.18;;;;;;;28.95;62.85;96499.41;5082988;28;20538;-48
2021/07/10 09:57:04;;;;;;;9.57;8.10;;;;;;;27.98;72.15;96490.38;5083814;28;20063;-53
2021/07/10 09:59:39;;;;;;;10.63;9.48;;;;;;;29.27;69.63;96493.13;5083721;28;20051;-47
2021/07/10 10:02:13;;;;;;;9.13;8.23;;;;;;;29.66;62.06;96488.19;5084892;28;20076;-55
2021/07/10 10:04:41;;;;;;;8.10;6.45;;;;;;;28.58;69.11;96493.97;5085570;28;20471;-50
2021/07/10 10:07:13;;;;;;;8.18;7.13;;;;;;;29.74;59.99;96495.03;5085798;28;20066;-51
2021/07/10 10:09:42;;;;;;;9.95;8.13;;;;;;;30.33;63.02;96481.06;5085475;28;20067;-48
2021/07/10 10:12:12;;;;;;;8.38;7.30;;;;;;;29.96;63.67;96476.59;5082685;28;20067;-49
2021/07/10 10:14:43;;;;;;;8.20;6.90;;;;;;;30.54;58.25;96476.44;5084119;28;20051;-51
2021/07/10 10:17:13;;;;;;;6.70;6.05;;;;;;;29.74;61.13;96479.53;5083851;28;20056;-48
2021/07/10 10:19:42;;;;;;;9.63;6.43;;;;;;;30.59;55.98;96462.81;5088973;28;20364;-46
2021/07/10 10:22:13;;;;;;;7.38;6.57;;;;;;;29.52;60.79;96463.34;5083120;28;20070;-46
2021/07/10 10:24:44;;;;;;;5.95;5.32;;;;;;;29.83;59.33;96454.53;5082259;28;20064;-51
2021/07/10 10:27:12;;;;;;;;;;;;;;;29.18;54.11;96456.66;5081775;28;20079;-50
2021/07/10 10:29:40;;;;;;;5.78;4.70;;;;;;;30.04;51.50;96454.31;5085831;28;20370;-48
2021/07/10 10:32:09;;;;;;;5.50;5.00;;;;;;;29.98;54.21;96443.72;5080748;28;20075;-46
2021/07/10 10:34:39;;;;;;;5.72;4.57;;;;;;;29.68;51.13;96436.28;5085999;28;20123;-48
2021/07/10 10:37:10;;;;;;;6.57;4.57;;;;;;;30.61;51.98;96433.44;5085610;28;20071;-48
2021/07/10 10:39:40;;;;;;;5.03;4.35;;;;;;;30.56;50.55;96427.16;5083068;28;20059;-49
2021/07/10 10:42:10;;;;;;;6.00;4.90;;;;;;;30.83;50.40;96429.63;5077860;28;20514;-49
2021/07/10 10:44:40;;;;;;;4.57;4.13;;;;;;;30.14;53.31;96425.50;5085772;28;20072;-45
2021/07/10 10:47:10;;;;;;;4.45;3.97;;;;;;;30.68;50.16;96423.09;5084139;28;20095;-48
2021/07/10 10:49:45;;;;;;;5.50;5.00;;;;;;;30.23;49.63;96415.75;5082816;28;20098;-47
2021/07/10 10:52:35;;;;;;;4.60;3.85;;;;;;;31.06;47.21;96423.59;5058289;28;20066;-48
2021/07/10 10:55:14;;;;;;;5.05;3.90;;;;;;;30.37;43.86;96416.84;5064527;28;20064;-51
2021/07/10 10:57:45;;;;;;;4.30;3.90;;;;;;;29.83;47.38;96424.63;5065199;28;20060;-49
2021/07/10 11:00:30;;;;;;;4.30;3.90;;;;;;;30.05;47.77;96425.22;5060763;28;20068;-50
2021/07/10 11:03:10;;;;;;;5.40;4.47;;;;;;;30.74;45.96;96415.75;5061896;28;20519;-45
2021/07/10 11:05:52;;;;;;;4.60;4.20;;;;;;;31.02;46.68;96414.34;5063653;28;20057;-45
2021/07/10 11:08:32;;;;;;;5.30;4.38;;;;;;;30.98;46.37;96405.91;5064821;28;20403;-50
2021/07/10 11:11:28;;;;;;;4.70;4.30;;;;;;;32.24;42.75;96407.50;5058022;28;20092;-50
2021/07/10 11:14:11;;;;;;;4.68;3.58;;;;;;;30.46;43.15;96411.69;5061521;28;20487;-50
2021/07/10 11:17:20;;;;;;;4.03;3.33;;;;;;;32.45;40.55;96410.94;5061664;28;20531;-50
2021/07/10 11:19:54;;;;;;;13.45;10.40;;;;;;;31.15;44.50;96402.06;5061080;28;20447;-53
2021/07/10 11:23:00;;;;;;;4.47;3.30;;;;;;;32.43;39.93;96406.88;5065526;28;20480;-49
2021/07/10 11:26:00;;;;;;;5.30;3.50;;;;;;;33.17;37.52;96400.13;5063282;28;20471;-47
2021/07/10 11:28:32;;;;;;;3.30;3.00;;;;;;;32.78;39.05;96395.63;5028548;28;20057;-46
2021/07/10 11:31:03;;;;;;;3.03;2.72;;;;;;;31.72;37.68;96398.00;5061995;28;20106;-48
2021/07/10 11:34:10;;;;;;;3.33;3.03;;;;;;;32.85;37.99;96395.28;5061873;28;20127;-53
2021/07/10 11:36:42;;;;;;;5.47;3.58;;;;;;;33.13;36.93;96384.63;5059327;28;20107;-49